Observations for QUIMPER PLUGUFF, France (LFRQ)

LFRQ 182100Z AUTO 09007KT CAVOK 05/01 Q1016 NOSIG   
LFRQ 182030Z AUTO 07009KT CAVOK 05/01 Q1016 NOSIG   
LFRQ 182000Z AUTO 07010KT CAVOK 05/01 Q1016 NOSIG   
LFRQ 181930Z AUTO 08008KT CAVOK 05/01 Q1016 NOSIG   
LFRQ 181900Z AUTO 08008KT CAVOK 06/01 Q1016 NOSIG   
LFRQ 181830Z AUTO 08010KT CAVOK 06/02 Q1016 NOSIG   
LFRQ 181800Z AUTO 07010KT CAVOK 06/02 Q1016 NOSIG   
LFRQ 181730Z AUTO 07012KT CAVOK 07/02 Q1016 NOSIG   
LFRQ 181700Z AUTO 06012KT CAVOK 07/02 Q1015 NOSIG   
LFRQ 181630Z AUTO 06011KT CAVOK 08/02 Q1015 NOSIG   
LFRQ 181600Z AUTO 06013KT CAVOK 09/02 Q1015 NOSIG   
LFRQ 181530Z AUTO 06012KT CAVOK 10/02 Q1015 NOSIG   
LFRQ 181500Z AUTO 05012KT CAVOK 10/03 Q1015 NOSIG   
LFRQ 181430Z AUTO 05010KT 020V080 CAVOK 11/05 Q1015 NOSIG   
LFRQ 181400Z AUTO 06012KT CAVOK 12/04 Q1016 NOSIG   
LFRQ 181330Z AUTO 07009KT 040V100 CAVOK 12/03 Q1016 NOSIG   
LFRQ 181300Z AUTO 07012KT CAVOK 12/03 Q1016 NOSIG   
LFRQ 181230Z AUTO 07013KT 040V100 CAVOK 12/05 Q1017 NOSIG   
LFRQ 181200Z AUTO 07011KT CAVOK 11/05 Q1017 NOSIG   
LFRQ 181130Z AUTO 07010KT 050V110 CAVOK 11/05 Q1017 NOSIG   
LFRQ 181100Z AUTO 08009KT CAVOK 10/06 Q1018 NOSIG   
LFRQ 181030Z AUTO 08009KT 060V120 CAVOK 09/06 Q1018 NOSIG   
LFRQ 181000Z AUTO 09007KT 050V120 9999 FEW016 08/05 Q1018 NOSIG 
LFRQ 180930Z AUTO 09006KT 060V120 CAVOK 07/05 Q1018 NOSIG   
LFRQ 180900Z AUTO 07008KT CAVOK 06/04 Q1018 NOSIG   
LFRQ 180830Z AUTO 07008KT CAVOK 05/04 Q1018 NOSIG   
LFRQ 180800Z AUTO 08008KT 9000 NSC 05/03 Q1018 NOSIG
LFRQ 180730Z AUTO 08010KT 9000 -RA SCT023 05/03 Q1017 NOSIG 
LFRQ 180700Z AUTO 08010KT 9000 -RA FEW015 05/03 Q1017 NOSIG 
LFRQ 180630Z AUTO 08010KT 8000 SCT020 05/03 Q1017 NOSIG 
LFRQ 180600Z AUTO 07011KT 8000 BKN010 OVC017 05/04 Q1016 BECMG SCT012   
LFRQ 180530Z AUTO 08010KT 8000 OVC011 05/03 Q1017 BECMG SCT012  
LFRQ 180500Z AUTO 08010KT 8000 BKN012 OVC020 04/03 Q1016
LFRQ 180430Z AUTO 08010KT 8000 FEW021 03/01 Q1016   
LFRQ 180400Z AUTO 07012KT 8000 NSC 03/01 Q1016  
LFRQ 180330Z AUTO 07012KT 8000 NSC 03/01 Q1017  
LFRQ 180300Z AUTO 07011KT 7000 NSC 03/01 Q1017  
LFRQ 180230Z AUTO 07012KT 7000 NSC 03/01 Q1017  
LFRQ 180200Z AUTO 07012KT 7000 NSC 03/01 Q1017  
LFRQ 180130Z AUTO 08009KT 050V110 6000 FEW013 03/01 Q1017   
LFRQ 180100Z AUTO 09007KT 6000 OVC014 03/02 Q1017   
LFRQ 180030Z AUTO 09007KT 6000 SCT014 03/01 Q1017   
LFRQ 180000Z AUTO 08007KT 6000 BKN014 BKN130 03/01 Q1017
LFRQ 172330Z AUTO 09006KT 060V140 7000 SCT013 03/01 Q1018   
LFRQ 172300Z AUTO 09009KT 7000 OVC013 04/02 Q1018   
LFRQ 172230Z AUTO 10008KT 070V140 7000 OVC013 04/02 Q1018   
LFRQ 172200Z AUTO 10008KT 7000 BKN013 04/02 Q1018 BECMG FEW009 SCT140   
LFRQ 172130Z AUTO 10009KT 070V140 7000 BKN013 BKN140 04/02 Q1017 BECMG FEW009 SCT140
LFRQ 172100Z AUTO 09007KT 060V120 9999 FEW012 04/03 Q1017 NOSIG 
LFRQ 172030Z AUTO 09006KT 060V130 9999 FEW011 05/03 Q1017 NOSIG